createdAt,value
2018-07-27T00:01:20.723Z,101534.80
2018-07-27T00:03:49.599Z,101537.53
2018-07-27T00:06:18.859Z,101528.60
2018-07-27T00:08:47.497Z,101530.00
2018-07-27T00:11:16.126Z,101532.88
2018-07-27T00:13:45.429Z,101522.98
2018-07-27T00:16:14.270Z,101527.77
2018-07-27T00:18:42.883Z,101529.49
2018-07-27T00:21:11.475Z,101533.34
2018-07-27T00:23:40.236Z,101531.45
2018-07-27T00:26:09.420Z,101524.25
2018-07-27T00:28:37.919Z,101531.70
2018-07-27T00:31:06.871Z,101531.92
2018-07-27T00:33:35.390Z,101535.77
2018-07-27T00:36:03.940Z,101537.05
2018-07-27T00:38:32.466Z,101537.14
2018-07-27T00:41:01.051Z,101532.58
2018-07-27T00:43:30.175Z,101534.88
2018-07-27T00:45:58.801Z,101537.92
2018-07-27T00:48:27.426Z,101529.04
2018-07-27T00:50:55.974Z,101531.04
2018-07-27T00:53:24.615Z,101526.46
2018-07-27T00:55:53.235Z,101535.41
2018-07-27T00:58:21.817Z,101539.05
2018-07-27T01:00:50.503Z,101528.57
2018-07-27T01:03:19.123Z,101530.11
2018-07-27T01:05:47.771Z,101529.95
2018-07-27T01:08:16.396Z,101529.39
2018-07-27T01:10:44.980Z,101535.90
2018-07-27T01:13:13.504Z,101534.09
2018-07-27T01:15:42.130Z,101538.41
2018-07-27T01:18:10.658Z,101539.20
2018-07-27T01:20:40.292Z,101535.41
2018-07-27T01:23:09.144Z,101538.27
2018-07-27T01:25:37.867Z,101538.06
2018-07-27T01:28:06.804Z,101533.33
2018-07-27T01:30:35.385Z,101534.45
2018-07-27T01:33:04.128Z,101533.72
2018-07-27T01:35:32.813Z,101526.85
2018-07-27T01:38:01.366Z,101528.02
2018-07-27T01:40:30.014Z,101534.48
2018-07-27T01:42:58.664Z,101532.11
2018-07-27T01:45:27.350Z,101532.30
2018-07-27T01:47:55.886Z,101535.27
2018-07-27T01:50:24.516Z,101530.12
2018-07-27T01:52:53.021Z,101529.35
2018-07-27T01:55:21.886Z,101530.88
2018-07-27T01:57:50.468Z,101536.03
2018-07-27T02:00:19.098Z,101540.70
2018-07-27T02:02:47.737Z,101534.72
2018-07-27T02:05:16.422Z,101531.75
2018-07-27T02:07:45.054Z,101539.47
2018-07-27T02:10:13.691Z,101539.66
2018-07-27T02:12:42.273Z,101529.28
2018-07-27T02:15:11.330Z,101530.34
2018-07-27T02:17:40.361Z,101533.20
2018-07-27T02:20:09.090Z,101529.95
2018-07-27T02:22:37.732Z,101531.87
2018-07-27T02:25:06.522Z,101539.87
2018-07-27T02:27:35.820Z,101529.77
2018-07-27T02:30:05.168Z,101527.56
2018-07-27T02:32:33.803Z,101526.33
2018-07-27T02:35:02.390Z,101528.63
2018-07-27T02:37:30.907Z,101530.92
2018-07-27T02:39:59.515Z,101521.02
2018-07-27T02:42:28.134Z,101516.61
2018-07-27T02:44:56.821Z,101516.05
2018-07-27T02:47:25.404Z,101514.34
2018-07-27T02:49:54.008Z,101514.54
2018-07-27T02:52:22.671Z,101519.47
2018-07-27T02:54:51.358Z,101523.37
2018-07-27T02:57:19.941Z,101520.05
2018-07-27T02:59:48.524Z,101523.48
2018-07-27T03:02:17.155Z,101524.63
2018-07-27T03:04:45.706Z,101515.66
2018-07-27T03:07:14.268Z,101518.33
2018-07-27T03:09:43.054Z,101511.30
2018-07-27T03:12:11.540Z,101514.52
2018-07-27T03:14:40.139Z,101514.16
2018-07-27T03:17:08.808Z,101515.86
2018-07-27T03:19:37.492Z,101512.73
2018-07-27T03:22:06.077Z,101510.16
2018-07-27T03:24:34.606Z,101519.39
2018-07-27T03:27:03.175Z,101516.62
2018-07-27T03:29:31.882Z,101516.53
2018-07-27T03:32:00.510Z,101511.84
2018-07-27T03:34:29.146Z,101517.75
2018-07-27T03:36:57.987Z,101513.29
2018-07-27T03:39:26.566Z,101514.89
2018-07-27T03:41:55.055Z,101517.47
2018-07-27T03:44:23.663Z,101519.07
2018-07-27T03:46:52.219Z,101516.31
2018-07-27T03:49:20.800Z,101515.63
2018-07-27T03:51:49.380Z,101508.30
2018-07-27T03:54:17.950Z,101504.09
2018-07-27T03:56:46.445Z,101508.83
2018-07-27T03:59:15.127Z,101515.03
2018-07-27T04:01:43.694Z,101510.47
2018-07-27T04:04:12.292Z,101512.07
2018-07-27T04:06:40.979Z,101510.11
2018-07-27T04:09:10.218Z,101512.84
2018-07-27T04:11:39.342Z,101508.55
2018-07-27T04:14:08.415Z,101516.52
2018-07-27T04:16:36.986Z,101514.98
2018-07-27T04:19:05.736Z,101512.88
2018-07-27T04:21:34.420Z,101512.48
2018-07-27T04:24:03.043Z,101519.11
2018-07-27T04:26:31.689Z,101519.47
2018-07-27T04:29:00.182Z,101521.12
2018-07-27T04:31:28.752Z,101521.03
2018-07-27T04:33:57.540Z,101510.27
2018-07-27T04:36:26.080Z,101513.05
2018-07-27T04:38:54.910Z,101504.75
2018-07-27T04:41:23.519Z,101503.69
2018-07-27T04:43:52.177Z,101505.70
2018-07-27T04:46:20.863Z,101510.41
2018-07-27T04:48:49.550Z,101507.58
2018-07-27T04:51:18.235Z,101513.53
2018-07-27T04:53:46.821Z,101515.35
2018-07-27T04:56:15.531Z,101514.91
2018-07-27T04:58:45.213Z,101518.64
2018-07-27T05:01:13.899Z,101515.02
2018-07-27T05:03:42.547Z,101510.55
2018-07-27T05:06:11.169Z,101513.41
2018-07-27T05:08:44.994Z,101511.22
2018-07-27T05:11:13.619Z,101507.73
2018-07-27T05:13:42.266Z,101508.43
2018-07-27T05:16:10.924Z,101506.28
2018-07-27T05:18:39.508Z,101502.31
2018-07-27T05:21:08.133Z,101503.33
2018-07-27T05:23:36.638Z,101505.89
2018-07-27T05:26:05.356Z,101511.17
2018-07-27T05:28:33.850Z,101508.14
2018-07-27T05:31:02.462Z,101509.85
2018-07-27T05:33:31.105Z,101505.69
2018-07-27T05:36:00.201Z,101508.25
2018-07-27T05:38:28.726Z,101514.10
2018-07-27T05:40:57.570Z,101519.22
2018-07-27T05:43:26.155Z,101515.15
2018-07-27T05:45:54.838Z,101518.81
2018-07-27T05:48:23.421Z,101525.98
2018-07-27T05:50:52.210Z,101518.37
2018-07-27T05:53:20.898Z,101519.95
2018-07-27T05:55:49.486Z,101519.91
2018-07-27T05:58:18.105Z,101523.78
2018-07-27T06:00:46.690Z,101527.30
2018-07-27T06:03:15.264Z,101531.90
2018-07-27T06:05:43.912Z,101536.23
2018-07-27T06:08:12.496Z,101529.08
2018-07-27T06:10:41.123Z,101526.95
2018-07-27T06:13:09.707Z,101528.24
2018-07-27T06:15:38.272Z,101533.73
2018-07-27T06:18:07.134Z,101533.92
2018-07-27T06:20:36.022Z,101535.09
2018-07-27T06:23:04.549Z,101533.42
2018-07-27T06:25:33.239Z,101532.96
2018-07-27T06:28:01.819Z,101538.41
2018-07-27T06:30:30.401Z,101541.89
2018-07-27T06:32:58.996Z,101544.12
2018-07-27T06:35:27.571Z,101547.97
2018-07-27T06:37:56.206Z,101545.83
2018-07-27T06:40:24.736Z,101543.03
2018-07-27T06:42:53.271Z,101550.63
2018-07-27T06:45:22.409Z,101549.80
2018-07-27T06:47:51.014Z,101553.01
2018-07-27T06:50:19.736Z,101548.33
2018-07-27T06:52:49.243Z,101548.20
2018-07-27T06:55:17.867Z,101548.91
2018-07-27T06:57:46.580Z,101551.79
2018-07-27T07:00:15.143Z,101555.32
2018-07-27T07:02:43.782Z,101552.88
2018-07-27T07:05:12.294Z,101549.45
2018-07-27T07:07:40.843Z,101547.66
2018-07-27T07:10:09.582Z,101554.94
2018-07-27T07:12:38.118Z,101558.14
2018-07-27T07:15:08.741Z,101552.42
2018-07-27T07:17:37.413Z,101557.28
2018-07-27T07:20:07.594Z,101560.78
2018-07-27T07:22:36.089Z,101561.58
2018-07-27T07:25:04.988Z,101568.48
2018-07-27T07:27:33.601Z,101565.77
2018-07-27T07:30:02.145Z,101568.80
2018-07-27T07:32:30.687Z,101569.58
2018-07-27T07:34:59.348Z,101567.31
2018-07-27T07:37:28.036Z,101579.52
2018-07-27T07:39:56.550Z,101569.95
2018-07-27T07:42:25.138Z,101572.63
2018-07-27T07:44:53.931Z,101562.73
2018-07-27T07:47:22.504Z,101568.93
2018-07-27T07:49:51.360Z,101570.34
2018-07-27T07:52:20.004Z,101567.41
2018-07-27T07:54:48.675Z,101561.45
2018-07-27T07:57:17.313Z,101567.11
2018-07-27T07:59:45.934Z,101567.13
2018-07-27T08:02:14.506Z,101563.98
2018-07-27T08:04:43.084Z,101555.87
2018-07-27T08:07:11.746Z,101563.17
2018-07-27T08:09:40.255Z,101564.37
2018-07-27T08:12:08.911Z,101555.75
2018-07-27T08:14:37.492Z,101556.30
2018-07-27T08:17:06.179Z,101549.92
2018-07-27T08:19:34.864Z,101551.84
2018-07-27T08:22:03.521Z,101558.49
2018-07-27T08:24:32.123Z,101556.11
2018-07-27T08:27:02.559Z,101558.16
2018-07-27T08:29:32.473Z,101551.39
2018-07-27T08:32:01.551Z,101547.03
2018-07-27T08:34:30.176Z,101551.79
2018-07-27T08:36:58.835Z,101550.58
2018-07-27T08:39:32.639Z,101551.63
2018-07-27T08:42:01.167Z,101541.92
2018-07-27T08:44:30.963Z,101545.97
2018-07-27T08:46:59.720Z,101536.97
2018-07-27T08:49:28.303Z,101536.80
2018-07-27T08:51:56.869Z,101534.44
2018-07-27T08:54:25.469Z,101537.48
2018-07-27T08:56:54.051Z,101537.49
2018-07-27T08:59:22.682Z,101535.64
2018-07-27T09:01:51.322Z,101548.02
2018-07-27T09:04:20.006Z,101554.13
2018-07-27T09:06:48.706Z,101547.36
2018-07-27T09:09:18.791Z,101543.30
2018-07-27T09:11:47.473Z,101547.37
2018-07-27T09:14:16.590Z,101553.48
2018-07-27T09:16:45.966Z,101555.85
2018-07-27T09:19:14.474Z,101549.22
2018-07-27T09:21:44.535Z,101552.74
2018-07-27T09:24:13.266Z,101552.74
2018-07-27T09:26:42.013Z,101550.53
2018-07-27T09:29:10.584Z,101548.67
2018-07-27T09:31:39.229Z,101553.08
2018-07-27T09:34:07.955Z,101551.05
2018-07-27T09:36:36.498Z,101549.74
2018-07-27T09:39:08.430Z,101544.98
2018-07-27T09:41:37.294Z,101540.56
2018-07-27T09:44:06.003Z,101535.48
2018-07-27T09:46:35.027Z,101533.45
2018-07-27T09:49:03.933Z,101531.08
2018-07-27T09:51:32.563Z,101535.48
2018-07-27T09:54:01.167Z,101522.23
2018-07-27T09:56:30.179Z,101524.63
2018-07-27T09:58:58.691Z,101525.66
2018-07-27T10:01:28.642Z,101529.72
2018-07-27T10:03:57.253Z,101524.77
2018-07-27T10:06:25.836Z,101522.05
2018-07-27T10:08:54.363Z,101522.22
2018-07-27T10:11:22.908Z,101518.48
2018-07-27T10:13:51.530Z,101524.06
2018-07-27T10:16:20.175Z,101519.50
2018-07-27T10:18:48.795Z,101518.30
2018-07-27T10:21:17.341Z,101509.98
2018-07-27T10:23:45.921Z,101518.81
2018-07-27T10:26:14.519Z,101517.11
2018-07-27T10:28:43.140Z,101519.98
2018-07-27T10:31:11.790Z,101514.06
2018-07-27T10:33:40.386Z,101501.48
2018-07-27T10:36:08.940Z,101507.87
2018-07-27T10:38:37.583Z,101502.44
2018-07-27T10:41:06.122Z,101504.83
2018-07-27T10:43:34.789Z,101499.89
2018-07-27T10:46:03.474Z,101501.21
2018-07-27T10:48:32.045Z,101501.13
2018-07-27T10:51:00.556Z,101496.34
2018-07-27T10:53:29.292Z,101494.27
2018-07-27T10:55:57.867Z,101494.09
2018-07-27T10:58:26.495Z,101487.80
2018-07-27T11:00:55.030Z,101494.92
2018-07-27T11:03:23.658Z,101485.25
2018-07-27T11:05:52.343Z,101495.75
2018-07-27T11:08:20.929Z,101492.70
2018-07-27T11:10:49.578Z,101482.78
2018-07-27T11:13:18.196Z,101486.19
2018-07-27T11:15:47.392Z,101483.10
2018-07-27T11:18:15.982Z,101487.87
2018-07-27T11:20:44.527Z,101488.23
2018-07-27T11:23:13.135Z,101496.53
2018-07-27T11:25:41.730Z,101474.80
2018-07-27T11:28:10.306Z,101477.73
2018-07-27T11:30:38.847Z,101475.26
2018-07-27T11:33:07.387Z,101475.86
2018-07-27T11:35:35.952Z,101476.45
2018-07-27T11:38:04.636Z,101478.81
2018-07-27T11:40:33.322Z,101475.07
2018-07-27T11:43:01.837Z,101472.12
2018-07-27T11:45:30.387Z,101466.76
2018-07-27T11:47:58.969Z,101467.02
2018-07-27T11:50:28.166Z,101460.83
2018-07-27T11:52:56.919Z,101457.06
2018-07-27T11:55:25.538Z,101451.57
2018-07-27T11:57:54.120Z,101453.41
2018-07-27T12:00:22.768Z,101451.98
2018-07-27T12:02:51.343Z,101455.95
2018-07-27T12:05:19.894Z,101457.42
2018-07-27T12:07:48.641Z,101462.00
2018-07-27T12:10:17.176Z,101470.28
2018-07-27T12:12:45.719Z,101474.05
2018-07-27T12:15:14.654Z,101464.89
2018-07-27T12:17:42.930Z,101457.80
2018-07-27T12:20:11.574Z,101457.17
2018-07-27T12:22:40.260Z,101455.99
2018-07-27T12:25:08.838Z,101454.31
2018-07-27T12:27:37.524Z,101451.58
2018-07-27T12:30:06.470Z,101444.34
2018-07-27T12:32:35.152Z,101447.44
2018-07-27T12:35:03.783Z,101446.95
2018-07-27T12:37:32.418Z,101438.94
2018-07-27T12:40:00.950Z,101441.09
2018-07-27T12:42:29.639Z,101443.98
2018-07-27T12:44:58.173Z,101432.28
2018-07-27T12:47:26.802Z,101432.91
2018-07-27T12:49:55.311Z,101429.38
2018-07-27T12:52:24.071Z,101428.14
2018-07-27T12:54:52.798Z,101437.80
2018-07-27T12:57:21.441Z,101439.48
2018-07-27T12:59:50.126Z,101433.66
2018-07-27T13:02:18.655Z,101420.78
2018-07-27T13:04:47.206Z,101405.98
2018-07-27T13:07:15.875Z,101402.66
2018-07-27T13:09:44.474Z,101402.56
2018-07-27T13:12:13.148Z,101391.80
2018-07-27T13:14:41.730Z,101397.23
2018-07-27T13:17:10.313Z,101410.50
2018-07-27T13:19:39.038Z,101402.06
2018-07-27T13:22:07.750Z,101408.05
2018-07-27T13:25:02.878Z,101403.63
2018-07-27T13:27:05.153Z,101395.47
2018-07-27T13:29:33.838Z,101395.38
2018-07-27T13:32:02.359Z,101391.88
2018-07-27T13:34:39.124Z,101389.14
2018-07-27T13:37:07.839Z,101390.16
2018-07-27T13:39:37.225Z,101394.03
2018-07-27T13:42:06.685Z,101382.36
2018-07-27T13:44:36.394Z,101387.83
2018-07-27T13:47:05.796Z,101384.55
2018-07-27T13:49:34.434Z,101375.59
2018-07-27T13:52:03.167Z,101380.73
2018-07-27T13:54:32.857Z,101373.90
2018-07-27T13:57:01.864Z,101377.84
2018-07-27T13:59:30.756Z,101378.41
2018-07-27T14:01:59.395Z,101377.14
2018-07-27T14:04:27.954Z,101364.03
2018-07-27T14:06:58.350Z,101357.73
2018-07-27T14:09:26.880Z,101357.27
2018-07-27T14:11:55.479Z,101354.53
2018-07-27T14:14:25.073Z,101352.20
2018-07-27T14:16:53.607Z,101352.70
2018-07-27T14:19:22.902Z,101348.41
2018-07-27T14:21:51.670Z,101353.88
2018-07-27T14:24:20.583Z,101348.29
2018-07-27T14:26:49.251Z,101349.73
2018-07-27T14:29:17.924Z,101349.73
2018-07-27T14:31:46.534Z,101336.40
2018-07-27T14:34:15.118Z,101338.67
2018-07-27T14:36:43.743Z,101332.98
2018-07-27T14:39:14.174Z,101331.92
2018-07-27T14:41:44.042Z,101338.23
2018-07-27T14:44:12.779Z,101329.70
2018-07-27T14:46:41.411Z,101329.58
2018-07-27T14:49:10.810Z,101320.36
2018-07-27T14:51:40.042Z,101319.71
2018-07-27T14:54:09.967Z,101316.89
2018-07-27T14:56:39.070Z,101315.55
2018-07-27T14:59:07.917Z,101320.02
2018-07-27T15:01:36.560Z,101312.39
2018-07-27T15:04:05.179Z,101313.61
2018-07-27T15:06:33.871Z,101309.21
2018-07-27T15:09:02.869Z,101303.59
2018-07-27T15:11:31.519Z,101300.77
2018-07-27T15:14:00.075Z,101299.08
2018-07-27T15:16:28.810Z,101300.92
2018-07-27T15:18:57.454Z,101294.77
2018-07-27T15:21:26.282Z,101304.44
2018-07-27T15:23:54.920Z,101307.95
2018-07-27T15:26:23.653Z,101305.98
2018-07-27T15:28:52.853Z,101303.24
2018-07-27T15:31:21.538Z,101299.84
2018-07-27T15:33:50.224Z,101296.66
2018-07-27T15:36:19.010Z,101295.63
2018-07-27T15:38:47.615Z,101296.03
2018-07-27T15:41:16.323Z,101300.69
2018-07-27T15:43:44.891Z,101299.08
2018-07-27T15:46:13.559Z,101291.52
2018-07-27T15:48:42.234Z,101290.05
2018-07-27T15:51:11.022Z,101290.74
2018-07-27T15:53:39.667Z,101285.11
2018-07-27T15:56:08.493Z,101286.85
2018-07-27T15:58:37.022Z,101288.47
2018-07-27T16:01:05.719Z,101300.61
2018-07-27T16:03:34.449Z,101292.45
2018-07-27T16:06:03.032Z,101285.63
2018-07-27T16:08:32.330Z,101294.96
2018-07-27T16:11:00.913Z,101289.02
2018-07-27T16:13:29.439Z,101279.52
2018-07-27T16:15:58.136Z,101283.70
2018-07-27T16:18:27.214Z,101285.25
2018-07-27T16:20:55.857Z,101281.41
2018-07-27T16:23:24.558Z,101282.13
2018-07-27T16:25:53.062Z,101267.66
2018-07-27T16:28:21.763Z,101266.32
2018-07-27T16:30:50.399Z,101264.11
2018-07-27T16:33:19.189Z,101265.52
2018-07-27T16:35:47.875Z,101262.67
2018-07-27T16:38:16.474Z,101267.83
2018-07-27T16:40:45.168Z,101265.80
2018-07-27T16:43:13.825Z,101263.73
2018-07-27T16:45:42.567Z,101265.19
2018-07-27T16:48:11.194Z,101270.87
2018-07-27T16:50:39.775Z,101264.75
2018-07-27T16:53:08.563Z,101261.47
2018-07-27T16:55:37.145Z,101246.38
2018-07-27T16:58:05.746Z,101251.91
2018-07-27T17:00:34.359Z,101249.53
2018-07-27T17:03:02.955Z,101254.73
2018-07-27T17:05:31.580Z,101254.08
2018-07-27T17:08:00.177Z,101252.95
2018-07-27T17:10:28.948Z,101251.58
2018-07-27T17:12:57.452Z,101243.08
2018-07-27T17:15:26.076Z,101251.98
2018-07-27T17:17:54.639Z,101250.40
2018-07-27T17:20:23.300Z,101241.55
2018-07-27T17:22:51.888Z,101190.10
2018-07-27T17:25:21.150Z,101243.57
2018-07-27T17:27:49.691Z,101235.44
2018-07-27T17:30:18.330Z,101234.16
2018-07-27T17:32:46.922Z,101231.13
2018-07-27T17:35:15.699Z,101238.03
2018-07-27T17:37:44.221Z,101228.19
2018-07-27T17:40:12.967Z,101233.39
2018-07-27T17:42:41.596Z,101229.78
2018-07-27T17:45:10.507Z,101232.91
2018-07-27T17:47:39.379Z,101228.73
2018-07-27T17:50:08.630Z,101228.73
2018-07-27T17:52:37.264Z,101226.00
2018-07-27T17:55:06.942Z,101232.11
2018-07-27T17:57:35.505Z,101231.06
2018-07-27T18:00:04.385Z,101223.73
2018-07-27T18:02:32.977Z,101224.58
2018-07-27T18:05:01.499Z,101227.83
2018-07-27T18:07:30.401Z,101225.01
2018-07-27T18:09:58.974Z,101228.48
2018-07-27T18:12:27.671Z,101228.28
2018-07-27T18:14:56.247Z,101228.08
2018-07-27T18:17:24.830Z,101228.48
2018-07-27T18:19:53.530Z,101231.52
2018-07-27T18:22:22.116Z,101230.16
2018-07-27T18:24:50.740Z,101229.09
2018-07-27T18:27:19.272Z,101235.81
2018-07-27T18:29:47.902Z,101235.33
2018-07-27T18:32:16.738Z,101232.99
2018-07-27T18:34:45.328Z,101231.31
2018-07-27T18:37:13.902Z,101233.08
2018-07-27T18:39:42.575Z,101236.20
2018-07-27T18:42:11.228Z,101239.41
2018-07-27T18:44:40.097Z,101232.73
2018-07-27T18:47:08.699Z,101238.97
2018-07-27T18:49:37.334Z,101238.20
2018-07-27T18:52:06.031Z,101241.72
2018-07-27T18:54:34.662Z,101239.77
2018-07-27T18:57:03.338Z,101243.13
2018-07-27T18:59:33.637Z,101240.87
2018-07-27T19:02:02.229Z,101246.83
2018-07-27T19:04:31.770Z,101252.15
2018-07-27T19:07:00.750Z,101250.89
2018-07-27T19:09:29.310Z,101249.98
2018-07-27T19:11:57.908Z,101248.06
2018-07-27T19:14:26.589Z,101255.67
2018-07-27T19:16:55.180Z,101254.81
2018-07-27T19:19:23.882Z,101262.38
2018-07-27T19:21:52.507Z,101251.58
2018-07-27T19:24:21.048Z,101258.34
2018-07-27T19:26:49.726Z,101260.33
2018-07-27T19:29:18.955Z,101259.68
2018-07-27T19:31:47.533Z,101259.81
2018-07-27T19:34:16.178Z,101261.59
2018-07-27T19:36:44.813Z,101261.03
2018-07-27T19:39:13.550Z,101256.02
2018-07-27T19:41:42.680Z,101268.87
2018-07-27T19:44:11.575Z,101261.27
2018-07-27T19:46:40.167Z,101264.37
2018-07-27T19:49:09.677Z,101260.39
2018-07-27T19:51:39.329Z,101255.68
2018-07-27T19:54:08.119Z,101260.34
2018-07-27T19:56:36.763Z,101260.20
2018-07-27T19:59:05.437Z,101260.28
2018-07-27T20:01:34.276Z,101257.25
2018-07-27T20:04:02.864Z,101260.33
2018-07-27T20:06:31.403Z,101258.83
2018-07-27T20:09:00.233Z,101263.80
2018-07-27T20:11:28.812Z,101261.14
2018-07-27T20:13:57.364Z,101267.14
2018-07-27T20:16:25.931Z,101271.42
2018-07-27T20:18:54.663Z,101267.37
2018-07-27T20:21:23.345Z,101267.42
2018-07-27T20:23:52.035Z,101267.41
2018-07-27T20:26:20.586Z,101265.24
2018-07-27T20:28:49.216Z,101271.86
2018-07-27T20:31:18.030Z,101272.56
2018-07-27T20:33:46.676Z,101276.32
2018-07-27T20:36:15.255Z,101272.94
2018-07-27T20:38:43.771Z,101269.20
2018-07-27T20:41:12.394Z,101270.58
2018-07-27T20:43:41.130Z,101276.69
2018-07-27T20:46:09.842Z,101278.54
2018-07-27T20:48:38.496Z,101278.36
2018-07-27T20:51:07.315Z,101287.01
2018-07-27T20:53:35.827Z,101283.12
2018-07-27T20:56:04.535Z,101281.75
2018-07-27T20:58:33.630Z,101279.05
2018-07-27T21:01:02.815Z,101281.09
2018-07-27T21:03:31.455Z,101280.92
2018-07-27T21:06:00.097Z,101290.89
2018-07-27T21:08:28.722Z,101286.50
2018-07-27T21:10:57.416Z,101296.98
2018-07-27T21:13:26.049Z,101291.50
2018-07-27T21:15:55.308Z,101295.56
2018-07-27T21:18:23.894Z,101295.04
2018-07-27T21:20:52.516Z,101298.20
2018-07-27T21:23:21.243Z,101291.76
2018-07-27T21:25:50.604Z,101299.88
2018-07-27T21:28:19.187Z,101295.12
2018-07-27T21:30:47.767Z,101300.16
2018-07-27T21:33:16.270Z,101302.16
2018-07-27T21:35:44.859Z,101307.23
2018-07-27T21:38:13.618Z,101300.43
2018-07-27T21:40:42.246Z,101301.41
2018-07-27T21:43:12.730Z,101300.02
2018-07-27T21:45:41.374Z,101308.65
2018-07-27T21:48:09.917Z,101299.98
2018-07-27T21:50:38.582Z,101300.25
2018-07-27T21:53:07.219Z,101296.01
2018-07-27T21:55:35.770Z,101298.83
2018-07-27T21:58:04.948Z,101297.61
2018-07-27T22:00:34.288Z,101293.70
2018-07-27T22:03:04.403Z,101298.39
2018-07-27T22:05:33.049Z,101297.67
2018-07-27T22:08:01.679Z,101299.44
2018-07-27T22:10:30.317Z,101301.58
2018-07-27T22:12:58.878Z,101305.55
2018-07-27T22:15:27.790Z,101306.15
2018-07-27T22:17:56.303Z,101298.97
2018-07-27T22:20:25.431Z,101308.19
2018-07-27T22:22:54.153Z,101300.02
2018-07-27T22:25:22.840Z,101299.78
2018-07-27T22:27:51.445Z,101299.53
2018-07-27T22:30:20.287Z,101300.63
2018-07-27T22:32:48.846Z,101294.12
2018-07-27T22:35:17.448Z,101294.05
2018-07-27T22:37:46.206Z,101295.37
2018-07-27T22:40:14.795Z,101292.91
2018-07-27T22:42:43.374Z,101286.12
2018-07-27T22:45:11.958Z,101279.27
2018-07-27T22:47:40.498Z,101279.52
2018-07-27T22:50:09.178Z,101275.37
2018-07-27T22:52:39.855Z,101275.62
2018-07-27T22:55:10.923Z,101264.75
2018-07-27T22:57:40.559Z,101259.25
2018-07-27T23:00:12.795Z,101256.66
2018-07-27T23:02:42.128Z,101254.41
2018-07-27T23:05:10.958Z,101260.44
2018-07-27T23:07:39.542Z,101254.70
2018-07-27T23:10:09.455Z,101253.84
2018-07-27T23:12:38.346Z,101250.66
2018-07-27T23:15:08.907Z,101247.97
2018-07-27T23:17:37.463Z,101246.13
2018-07-27T23:20:10.111Z,101249.61
2018-07-27T23:22:38.768Z,101240.42
2018-07-27T23:25:08.042Z,101242.41
2018-07-27T23:27:37.174Z,101240.01
2018-07-27T23:30:07.730Z,101244.34
2018-07-27T23:32:36.387Z,101239.25
2018-07-27T23:35:05.015Z,101243.59
2018-07-27T23:37:33.657Z,101242.19
2018-07-27T23:40:02.187Z,101236.81
2018-07-27T23:42:30.870Z,101232.16
2018-07-27T23:44:59.382Z,101229.36
2018-07-27T23:47:28.006Z,101223.80
2018-07-27T23:49:57.705Z,101230.44
2018-07-27T23:52:26.382Z,101229.95
2018-07-27T23:54:55.070Z,101230.43
2018-07-27T23:57:23.760Z,101230.31
2018-07-27T23:59:53.365Z,101221.95
